ハンブルク の空港の天気 - METARとTAF

ハンブルク国際空港 ( EDDH / HAM ) - ドイツ ハンブルク
飛行場実況気象(Metar)
観測時間02/05 20:50 CET (02/05 19:50 UTC)
風向・風速北西 3m/s
視程9000m
天気現象
全天の4割程度の雲 雲底高度 850m
全天の8割程度の雲 雲底高度 1010m
全天の8割程度の雲 雲底高度 1220m
気温1℃
湿度93%
気圧1039hPa
METAREDDH 051950Z AUTO 31005KT 9000 SCT028 BKN033 BKN040 01/00 Q1039 TEMPO 4000 BR
過去の天気等 Google飛行場航空写真 Wunderground天気予報

過去48時間のMETAR

飛行場予報(TAF)
発表時間: 2/05 18:00 CET (2/05 17:00 UTC)
予報対象時間: 5日19時 CET ~ 7日1時 CET
風向・風速北西 2m/s
視程10km以上
全天の8割程度の雲 雲底高度 340m
5日19時 CET ~ 5日21時 CET に一時的に
全天の8割程度の雲 雲底高度 180m
5日19時 CET ~ 5日21時 CET に 確率 30% で一時的に
視程4500m
天気現象もや
全天の8割程度の雲 雲底高度 120m
5日20時 CET ~ 5日22時 CET に徐々に
全天の4割程度の雲 雲底高度 760m
5日22時 CET ~ 6日1時 CET に 確率 30% で一時的に
全天の8割程度の雲 雲底高度 240m
6日4時 CET ~ 6日11時 CET に 確率 30% で一時的に
視程500m
天気現象氷霧
全天を覆う雲 雲底高度 30m
6日8時 CET ~ 6日10時 CET に徐々に
全天の8割程度の雲 雲底高度 180m
6日8時 CET ~ 6日12時 CET に一時的に
視程3000m
天気現象もや
6日10時 CET ~ 6日12時 CET に徐々に
風向・風速東北東 3m/s
6日12時 CET ~ 6日14時 CET に徐々に
全天の4割程度の雲 雲底高度 610m
6日18時 CET ~ 6日20時 CET に徐々に
風向・風速南東 2m/s
TAF EDDH 051700Z 0518/0624 32004KT 9999 BKN011
TEMPO 0518/0520 BKN006
PROB30 TEMPO 0518/0520 4500 BR BKN004
BECMG 0519/0521 SCT025
PROB30 TEMPO 0521/0524 BKN008
PROB30 TEMPO 0603/0610 0500 FZFG OVC001
BECMG 0607/0609 BKN006
TEMPO 0607/0611 3000 BR
BECMG 0609/0611 06005KT
BECMG 0611/0613 SCT020
BECMG 0617/0619 14003KT